createdAt,value
2018-03-19T00:00:12.964Z,29.17
2018-03-19T00:02:41.294Z,30.37
2018-03-19T00:05:09.526Z,25.67
2018-03-19T00:07:37.808Z,29.57
2018-03-19T00:10:06.137Z,29.43
2018-03-19T00:12:34.373Z,27.67
2018-03-19T00:33:05.538Z,30.20
2018-03-19T00:35:33.851Z,29.80
2018-03-19T00:38:02.123Z,30.57
2018-03-19T00:58:34.547Z,29.73
2018-03-19T01:01:02.831Z,30.90
2018-03-19T01:03:31.195Z,29.13
2018-03-19T01:05:59.572Z,30.93
2018-03-19T01:08:27.853Z,30.27
2018-03-19T01:10:56.203Z,30.17
2018-03-19T01:13:24.540Z,31.63
2018-03-19T01:15:53.588Z,31.67
2018-03-19T01:18:21.876Z,30.67
2018-03-19T01:38:52.556Z,31.60
2018-03-19T01:41:21.724Z,31.87
2018-03-19T01:43:49.983Z,31.90
2018-03-19T01:46:18.293Z,29.97
2018-03-19T01:48:46.579Z,33.40
2018-03-19T01:51:14.846Z,32.20
2018-03-19T01:53:43.359Z,31.43
2018-03-19T02:14:15.346Z,31.60
2018-03-19T02:34:47.436Z,31.60
2018-03-19T02:37:15.674Z,29.07
2018-03-19T02:39:43.923Z,29.73
2018-03-19T02:42:13.046Z,31.70
2018-03-19T03:02:43.608Z,30.03
2018-03-19T03:05:12.135Z,32.27
2018-03-19T03:25:45.122Z,30.13
2018-03-19T03:28:13.462Z,31.43
2018-03-19T03:30:42.504Z,31.07
2018-03-19T03:33:10.784Z,29.93
2018-03-19T03:53:43.970Z,31.77
2018-03-19T03:56:12.276Z,31.23
2018-03-19T03:58:40.585Z,30.93
2018-03-19T04:01:09.230Z,29.67
2018-03-19T04:03:37.483Z,29.83
2018-03-19T04:06:05.767Z,31.40
2018-03-19T04:08:34.278Z,31.53
2018-03-19T04:11:02.540Z,31.07
2018-03-19T04:13:30.820Z,32.50
2018-03-19T04:15:59.086Z,33.30
2018-03-19T04:18:28.090Z,29.90
2018-03-19T04:20:56.401Z,31.03
2018-03-19T04:23:24.674Z,29.87
2018-03-19T04:25:52.961Z,30.93
2018-03-19T04:28:21.268Z,29.97
2018-03-19T04:30:49.608Z,31.13
2018-03-19T04:33:17.895Z,27.70
2018-03-19T04:35:46.176Z,29.57
2018-03-19T04:38:14.669Z,30.63
2018-03-19T04:40:43.016Z,27.73
2018-03-19T04:43:12.018Z,30.23
2018-03-19T04:45:40.732Z,30.90
2018-03-19T04:48:09.079Z,31.83
2018-03-19T04:50:38.202Z,27.60
2018-03-19T04:53:06.809Z,31.37
2018-03-19T04:55:35.860Z,30.70
2018-03-19T04:58:04.090Z,31.33
2018-03-19T05:18:36.648Z,31.07
2018-03-19T05:39:10.688Z,27.00
2018-03-19T05:41:39.955Z,30.70
2018-03-19T05:44:08.215Z,31.03
2018-03-19T05:46:36.592Z,31.33
2018-03-19T05:49:04.999Z,28.57
2018-03-19T05:51:34.785Z,30.60
2018-03-19T06:12:05.277Z,29.00
2018-03-19T06:14:33.543Z,30.90
2018-03-19T06:35:05.640Z,29.27
2018-03-19T06:37:33.900Z,28.43
2018-03-19T06:40:02.164Z,31.37
2018-03-19T06:42:30.538Z,29.23
2018-03-19T07:03:02.046Z,30.20
2018-03-19T07:05:30.501Z,30.83
2018-03-19T07:07:58.747Z,29.83
2018-03-19T07:10:28.048Z,30.83
2018-03-19T07:12:57.164Z,30.00
2018-03-19T07:15:25.448Z,31.73
2018-03-19T07:17:53.698Z,28.80
2018-03-19T07:20:22.932Z,31.00
2018-03-19T07:22:51.213Z,31.03
2018-03-19T07:43:23.368Z,29.80
2018-03-19T08:03:54.972Z,30.40
2018-03-19T08:06:24.360Z,30.90
2018-03-19T08:08:52.595Z,27.97
2018-03-19T08:11:20.876Z,30.07
2018-03-19T08:13:49.380Z,30.77
2018-03-19T08:16:17.647Z,30.67
2018-03-19T08:18:45.954Z,31.47
2018-03-19T08:21:14.652Z,31.53
2018-03-19T08:23:42.929Z,31.93
2018-03-19T08:26:11.187Z,31.53
2018-03-19T08:28:39.478Z,29.47
2018-03-19T08:31:07.722Z,29.93
2018-03-19T08:33:36.024Z,29.97
2018-03-19T08:36:04.297Z,30.87
2018-03-19T08:38:32.519Z,29.23
2018-03-19T08:41:00.807Z,30.60
2018-03-19T08:43:29.847Z,30.07
2018-03-19T08:45:58.169Z,29.63
2018-03-19T08:48:26.403Z,30.33
2018-03-19T08:50:54.807Z,30.37
2018-03-19T08:53:23.054Z,31.00
2018-03-19T08:55:51.368Z,32.03
2018-03-19T08:58:19.717Z,30.17
2018-03-19T09:00:47.959Z,31.93
2018-03-19T09:03:17.003Z,31.87
2018-03-19T09:05:45.284Z,30.10
2018-03-19T09:08:13.595Z,30.87
2018-03-19T09:10:41.860Z,33.17
2018-03-19T09:13:10.152Z,31.37
2018-03-19T09:15:38.432Z,31.57
2018-03-19T09:18:06.722Z,31.10
2018-03-19T09:20:34.967Z,30.07
2018-03-19T09:23:03.255Z,31.90
2018-03-19T09:25:31.519Z,31.73
2018-03-19T09:27:59.812Z,30.57
2018-03-19T09:48:32.301Z,31.17
2018-03-19T09:51:01.233Z,31.50
2018-03-19T09:53:29.480Z,30.57
2018-03-19T09:55:57.761Z,30.13
2018-03-19T09:58:26.371Z,29.13
2018-03-19T10:18:59.154Z,29.37
2018-03-19T10:21:27.471Z,29.97
2018-03-19T10:23:55.675Z,29.10
2018-03-19T10:26:24.720Z,29.13
2018-03-19T10:28:53.018Z,29.40
2018-03-19T10:31:21.317Z,30.57
2018-03-19T10:33:49.587Z,29.10
2018-03-19T10:36:17.921Z,30.13
2018-03-19T10:38:46.217Z,30.80
2018-03-19T10:41:14.491Z,30.97
2018-03-19T10:43:42.820Z,30.17
2018-03-19T10:46:11.849Z,31.77
2018-03-19T10:48:40.137Z,31.33
2018-03-19T10:51:08.499Z,30.43
2018-03-19T11:11:39.696Z,28.67
2018-03-19T11:14:08.288Z,29.10
2018-03-19T11:16:36.535Z,30.57
2018-03-19T11:19:04.845Z,28.63
2018-03-19T11:21:38.911Z,28.87
2018-03-19T11:24:07.219Z,28.50
2018-03-19T11:44:39.583Z,27.30
2018-03-19T11:47:07.900Z,27.77
2018-03-19T11:49:36.371Z,27.57
2018-03-19T12:10:07.928Z,28.93
2018-03-19T12:12:36.324Z,26.67
2018-03-19T12:15:04.733Z,27.63
2018-03-19T12:17:33.376Z,27.73
2018-03-19T12:38:05.312Z,27.90
2018-03-19T12:40:33.903Z,27.83
2018-03-19T12:43:02.183Z,29.03
2018-03-19T13:03:32.779Z,29.03
2018-03-19T13:24:04.561Z,26.60
2018-03-19T13:26:33.072Z,28.07
2018-03-19T13:29:02.212Z,28.53
2018-03-19T13:31:30.492Z,27.50
2018-03-19T13:33:59.108Z,28.63
2018-03-19T13:36:27.420Z,29.73
2018-03-19T13:38:56.490Z,29.80
2018-03-19T13:41:24.772Z,29.07
2018-03-19T13:43:53.028Z,30.43
2018-03-19T13:46:21.332Z,29.27
2018-03-19T13:48:49.770Z,29.17
2018-03-19T13:51:18.058Z,28.53
2018-03-19T13:53:46.536Z,28.63
2018-03-19T13:56:14.853Z,29.90
2018-03-19T13:58:43.124Z,29.60
2018-03-19T14:01:11.395Z,30.50
2018-03-19T14:03:39.900Z,31.23
2018-03-19T14:06:08.180Z,31.03
2018-03-19T14:08:36.426Z,29.93
2018-03-19T14:11:04.708Z,30.77
2018-03-19T14:13:33.025Z,30.23
2018-03-19T14:34:03.112Z,30.50
2018-03-19T14:36:31.384Z,31.10
2018-03-19T14:39:00.440Z,30.77
2018-03-19T14:41:28.712Z,30.17
2018-03-19T14:43:56.994Z,30.10
2018-03-19T14:46:25.279Z,30.40
2018-03-19T14:48:53.736Z,30.47
2018-03-19T14:51:22.043Z,30.07
2018-03-19T14:53:50.469Z,30.37
2018-03-19T14:56:19.744Z,30.17
2018-03-19T15:16:53.172Z,30.63
2018-03-19T15:19:21.681Z,28.87
2018-03-19T15:21:50.674Z,30.60
2018-03-19T15:24:19.717Z,29.83
2018-03-19T15:26:48.022Z,30.03
2018-03-19T15:29:16.330Z,28.80
2018-03-19T15:31:44.628Z,30.57
2018-03-19T15:52:17.416Z,29.03
2018-03-19T15:54:46.543Z,30.10
2018-03-19T16:15:20.313Z,25.20
2018-03-19T16:35:53.662Z,27.63
2018-03-19T16:38:22.314Z,26.40
2018-03-19T16:40:50.616Z,27.13
2018-03-19T17:01:20.455Z,26.93
2018-03-19T17:21:55.394Z,25.57
2018-03-19T17:42:27.686Z,24.33
2018-03-19T18:03:00.344Z,25.37
2018-03-19T18:05:28.667Z,27.07
2018-03-19T18:07:56.976Z,24.67
2018-03-19T18:28:26.803Z,24.50
2018-03-19T18:30:55.848Z,27.90
2018-03-19T18:33:24.168Z,25.37
2018-03-19T18:35:53.357Z,28.00
2018-03-19T18:38:21.574Z,26.63
2018-03-19T19:04:57.537Z,27.13
2018-03-19T19:07:25.796Z,24.67
2018-03-19T19:09:54.027Z,27.80
2018-03-19T19:12:22.565Z,28.53
2018-03-19T19:14:50.809Z,27.30
2018-03-19T19:17:19.104Z,27.47
2018-03-19T19:37:52.135Z,26.33
2018-03-19T19:40:20.408Z,30.03
2018-03-19T19:42:48.676Z,25.00
2018-03-19T19:45:16.983Z,28.60
2018-03-19T19:47:45.264Z,29.43
2018-03-19T19:50:13.512Z,27.27
2018-03-19T19:52:42.070Z,27.93
2018-03-19T19:55:11.133Z,26.03
2018-03-19T19:57:39.366Z,30.10
2018-03-19T20:00:07.801Z,30.60
2018-03-19T20:02:36.172Z,29.03
2018-03-19T20:23:09.588Z,27.27
2018-03-19T20:25:37.835Z,30.93
2018-03-19T20:46:09.067Z,29.67
2018-03-19T21:06:40.788Z,30.83
2018-03-19T21:27:12.939Z,30.13
2018-03-19T21:29:41.943Z,29.67
2018-03-19T21:50:12.351Z,26.73
2018-03-19T22:10:43.902Z,24.17
2018-03-19T22:13:12.488Z,23.97
2018-03-19T22:15:40.731Z,25.57
2018-03-19T22:18:09.786Z,23.50
2018-03-19T22:20:38.068Z,26.73
2018-03-19T22:23:06.388Z,23.13
2018-03-19T22:25:34.873Z,25.57
2018-03-19T22:28:03.137Z,25.07
2018-03-19T22:48:36.446Z,24.47
2018-03-19T23:09:09.811Z,22.77
2018-03-19T23:11:38.157Z,25.03
2018-03-19T23:14:06.429Z,24.53
2018-03-19T23:16:34.912Z,27.33
2018-03-19T23:37:08.856Z,27.87
2018-03-19T23:39:37.152Z,29.00
2018-03-19T23:42:06.221Z,28.50
2018-03-19T23:44:34.487Z,27.27
2018-03-19T23:47:02.769Z,27.77
2018-03-19T23:49:31.046Z,27.80
2018-03-19T23:51:59.303Z,24.37
2018-03-19T23:54:30.529Z,29.17
2018-03-19T23:56:58.776Z,25.07
